createdAt,value
2022-09-28T00:01:23.480Z,98813.60
2022-09-28T00:03:54.693Z,98813.43
2022-09-28T00:06:25.409Z,98811.54
2022-09-28T00:08:53.499Z,98807.64
2022-09-28T00:11:23.409Z,98813.10
2022-09-28T00:13:53.956Z,98812.45
2022-09-28T00:16:25.835Z,98813.85
2022-09-28T00:18:54.377Z,98817.27
2022-09-28T00:21:24.649Z,98816.78
2022-09-28T00:24:12.786Z,98814.44
2022-09-28T00:27:01.522Z,98812.48
2022-09-28T00:29:35.318Z,98809.73
2022-09-28T00:32:10.657Z,98809.17
2022-09-28T00:34:42.599Z,98808.55
2022-09-28T00:37:11.474Z,98805.23
2022-09-28T00:39:43.529Z,98805.23
2022-09-28T00:42:26.314Z,98806.00
2022-09-28T00:45:01.875Z,98809.67
2022-09-28T00:47:56.387Z,98795.52
2022-09-28T00:50:34.132Z,98788.97
2022-09-28T00:53:13.045Z,98803.53
2022-09-28T00:55:50.510Z,98798.77
2022-09-28T00:58:30.084Z,98795.48
2022-09-28T01:01:01.123Z,98794.58
2022-09-28T01:03:30.361Z,98795.73
2022-09-28T01:06:02.534Z,98795.54
2022-09-28T01:08:33.855Z,98793.98
2022-09-28T01:11:02.219Z,98784.96
2022-09-28T01:13:32.215Z,98779.98
2022-09-28T01:16:08.277Z,98777.98
2022-09-28T01:18:55.706Z,98776.17
2022-09-28T01:21:25.136Z,98771.36
2022-09-28T01:24:00.161Z,98767.59
2022-09-28T01:26:56.423Z,98746.71
2022-09-28T01:29:34.440Z,98762.83
2022-09-28T01:32:32.310Z,98763.95
2022-09-28T01:35:07.085Z,98768.12
2022-09-28T01:38:09.700Z,98760.43
2022-09-28T01:40:37.991Z,98767.27
2022-09-28T01:43:11.660Z,98769.45
2022-09-28T01:45:46.659Z,98770.96
2022-09-28T01:48:24.668Z,98769.38
2022-09-28T01:50:58.022Z,98769.59
2022-09-28T01:53:41.340Z,98772.59
2022-09-28T01:56:42.096Z,98756.50
2022-09-28T01:59:20.799Z,98774.16
2022-09-28T02:02:03.976Z,98772.59
2022-09-28T02:04:39.712Z,98774.55
2022-09-28T02:07:24.513Z,98771.14
2022-09-28T02:09:58.580Z,98773.82
2022-09-28T02:12:35.013Z,98777.77
2022-09-28T02:15:42.391Z,98774.58
2022-09-28T02:18:10.663Z,98774.47
2022-09-28T02:20:41.165Z,98773.58
2022-09-28T02:23:10.394Z,98770.89
2022-09-28T02:25:47.281Z,98768.64
2022-09-28T02:28:15.392Z,98765.81
2022-09-28T02:30:44.764Z,98767.38
2022-09-28T02:33:28.498Z,98769.27
2022-09-28T02:35:58.645Z,98769.61
2022-09-28T02:38:26.873Z,98772.39
2022-09-28T02:41:05.656Z,98766.98
2022-09-28T02:43:45.997Z,98757.77
2022-09-28T02:46:28.950Z,98763.42
2022-09-28T02:49:38.946Z,98767.29
2022-09-28T02:52:25.220Z,98766.73
2022-09-28T02:55:44.883Z,98763.41
2022-09-28T02:58:37.734Z,98749.57
2022-09-28T03:01:25.281Z,98753.66
2022-09-28T03:04:02.420Z,98755.67
2022-09-28T03:06:46.239Z,98756.99
2022-09-28T03:09:22.962Z,98759.13
2022-09-28T03:11:56.339Z,98762.16
2022-09-28T03:14:24.574Z,98748.70
2022-09-28T03:16:55.563Z,98766.86
2022-09-28T03:19:29.029Z,98768.52
2022-09-28T03:21:56.996Z,98769.36
2022-09-28T03:24:25.122Z,98769.94
2022-09-28T03:26:53.187Z,98755.59
2022-09-28T03:29:21.243Z,98768.08
2022-09-28T03:31:52.850Z,98770.77
2022-09-28T03:34:20.852Z,98774.77
2022-09-28T03:36:49.077Z,98779.20
2022-09-28T03:39:16.892Z,98777.59
2022-09-28T03:41:44.856Z,98783.70
2022-09-28T03:44:12.956Z,98783.10
2022-09-28T03:46:41.026Z,98781.52
2022-09-28T03:49:10.692Z,98773.37
2022-09-28T03:51:38.865Z,98788.44
2022-09-28T03:54:09.852Z,98787.77
2022-09-28T03:56:37.698Z,98790.51
2022-09-28T03:59:06.222Z,98791.20
2022-09-28T04:01:34.089Z,98794.41
2022-09-28T04:04:02.021Z,98790.83
2022-09-28T04:06:31.000Z,98791.67
2022-09-28T04:08:58.782Z,98792.54
2022-09-28T04:11:26.718Z,98795.77
2022-09-28T04:13:54.796Z,98792.63
2022-09-28T04:16:24.361Z,98794.72
2022-09-28T04:18:59.963Z,98799.65
2022-09-28T04:21:50.637Z,98797.48
2022-09-28T04:24:20.480Z,98798.55
2022-09-28T04:26:49.521Z,98798.26
2022-09-28T04:29:19.269Z,98795.16
2022-09-28T04:31:55.804Z,98793.97
2022-09-28T04:34:44.443Z,98791.79
2022-09-28T04:37:13.052Z,98798.29
2022-09-28T04:39:43.122Z,98800.12
2022-09-28T04:42:14.607Z,98799.93
2022-09-28T04:44:42.479Z,98792.72
2022-09-28T04:47:10.646Z,98798.23
2022-09-28T04:49:57.164Z,98798.86
2022-09-28T04:52:36.966Z,98802.29
2022-09-28T04:55:06.519Z,98796.58
2022-09-28T04:57:35.772Z,98790.73
2022-09-28T05:00:04.799Z,98793.14
2022-09-28T05:02:35.569Z,98782.92
2022-09-28T05:05:23.681Z,98795.91
2022-09-28T05:08:30.457Z,98795.30
2022-09-28T05:11:00.439Z,98799.70
2022-09-28T05:13:29.461Z,98797.63
2022-09-28T05:16:03.065Z,98794.93
2022-09-28T05:18:34.887Z,98796.73
2022-09-28T05:21:09.473Z,98798.09
2022-09-28T05:23:37.303Z,98745.54
2022-09-28T05:26:08.447Z,98795.75
2022-09-28T05:28:37.058Z,98796.55
2022-09-28T05:31:32.643Z,98793.38
2022-09-28T05:34:13.873Z,98795.44
2022-09-28T05:36:42.989Z,98798.52
2022-09-28T05:39:10.801Z,98800.48
2022-09-28T05:41:38.619Z,98806.66
2022-09-28T05:44:06.617Z,98804.38
2022-09-28T05:46:35.620Z,98810.09
2022-09-28T05:49:03.774Z,98811.36
2022-09-28T05:51:31.929Z,98816.26
2022-09-28T05:54:03.278Z,98817.73
2022-09-28T05:56:34.408Z,98813.82
2022-09-28T05:59:06.260Z,98820.69
2022-09-28T06:01:34.178Z,98821.40
2022-09-28T06:04:03.129Z,98825.41
2022-09-28T06:06:32.190Z,98822.59
2022-09-28T06:09:00.160Z,98825.73
2022-09-28T06:11:48.397Z,98825.92
2022-09-28T06:14:24.191Z,98825.58
2022-09-28T06:16:52.595Z,98824.06
2022-09-28T06:19:20.471Z,98822.66
2022-09-28T06:22:00.805Z,98823.86
2022-09-28T06:24:28.977Z,98806.27
2022-09-28T06:26:56.764Z,98822.62
2022-09-28T06:29:24.866Z,98827.55
2022-09-28T06:31:53.478Z,98827.77
2022-09-28T06:34:21.677Z,98818.13
2022-09-28T06:36:49.947Z,98836.27
2022-09-28T06:39:17.978Z,98837.30
2022-09-28T06:41:45.749Z,98843.45
2022-09-28T06:44:16.858Z,98843.73
2022-09-28T06:47:22.334Z,98844.77
2022-09-28T06:50:12.297Z,98843.34
2022-09-28T06:53:00.287Z,98842.76
2022-09-28T06:55:54.809Z,98847.81
2022-09-28T06:58:23.895Z,98848.85
2022-09-28T07:00:52.146Z,98856.16
2022-09-28T07:03:22.762Z,98855.75
2022-09-28T07:06:24.273Z,98861.14
2022-09-28T07:09:32.383Z,98855.41
2022-09-28T07:12:25.508Z,98856.98
2022-09-28T07:15:01.124Z,98859.71
2022-09-28T07:17:29.812Z,98861.43
2022-09-28T07:20:09.215Z,98863.48
2022-09-28T07:22:43.958Z,98865.29
2022-09-28T07:25:17.764Z,98866.58
2022-09-28T07:27:50.493Z,98866.08
2022-09-28T07:30:50.896Z,98863.65
2022-09-28T07:33:35.769Z,98863.12
2022-09-28T07:36:20.944Z,98857.73
2022-09-28T07:38:49.051Z,98865.17
2022-09-28T07:41:22.559Z,98866.71
2022-09-28T07:43:52.698Z,98868.90
2022-09-28T07:46:21.370Z,98868.00
2022-09-28T07:48:56.583Z,98870.40
2022-09-28T07:51:33.997Z,98865.44
2022-09-28T07:54:31.410Z,98870.42
2022-09-28T07:57:28.734Z,98872.71
2022-09-28T08:00:23.011Z,98878.82
2022-09-28T08:02:51.389Z,98884.98
2022-09-28T08:05:24.032Z,98881.93
2022-09-28T08:07:53.131Z,98887.70
2022-09-28T08:10:21.210Z,98885.46
2022-09-28T08:13:16.490Z,98885.34
2022-09-28T08:16:01.184Z,98884.88
2022-09-28T08:18:36.253Z,98885.00
2022-09-28T08:21:25.167Z,98886.73
2022-09-28T08:23:53.376Z,98891.42
2022-09-28T08:26:21.918Z,98894.54
2022-09-28T08:28:51.309Z,98895.02
2022-09-28T08:31:37.950Z,98893.73
2022-09-28T08:34:13.774Z,98891.38
2022-09-28T08:37:00.849Z,98894.17
2022-09-28T08:40:17.421Z,98888.55
2022-09-28T08:43:39.804Z,98890.84
2022-09-28T08:46:35.506Z,98885.52
2022-09-28T08:49:37.207Z,98879.36
2022-09-28T08:52:40.133Z,98883.30
2022-09-28T08:55:47.190Z,98881.61
2022-09-28T08:58:26.133Z,98878.19
2022-09-28T09:00:54.636Z,98877.00
2022-09-28T09:03:39.528Z,98879.65
2022-09-28T09:06:44.904Z,98881.61
2022-09-28T09:10:13.501Z,98885.10
2022-09-28T09:12:55.055Z,98885.17
2022-09-28T09:15:43.413Z,98882.48
2022-09-28T09:18:35.513Z,98876.52
2022-09-28T09:21:47.822Z,98876.52
2022-09-28T09:24:27.466Z,98877.40
2022-09-28T09:27:06.995Z,98878.40
2022-09-28T09:30:04.200Z,98881.27
2022-09-28T09:32:47.874Z,98875.23
2022-09-28T09:35:58.816Z,98880.17
2022-09-28T09:38:54.508Z,98876.21
2022-09-28T09:42:15.561Z,98877.32
2022-09-28T09:45:28.831Z,98881.52
2022-09-28T09:48:27.783Z,98881.44
2022-09-28T09:51:05.041Z,98881.15
2022-09-28T09:53:59.896Z,98884.70
2022-09-28T09:56:38.602Z,98889.07
2022-09-28T09:59:15.557Z,98893.57
2022-09-28T10:02:15.605Z,98893.68
2022-09-28T10:04:55.234Z,98894.13
2022-09-28T10:07:43.272Z,98894.19
2022-09-28T10:10:19.211Z,98891.65
2022-09-28T10:12:51.376Z,98894.36
2022-09-28T10:15:31.453Z,98895.80
2022-09-28T10:18:21.468Z,98897.66
2022-09-28T10:21:18.610Z,98899.34
2022-09-28T10:23:58.901Z,98906.33
2022-09-28T10:26:53.158Z,98895.03
2022-09-28T10:29:25.037Z,98899.16
2022-09-28T10:31:54.806Z,98902.59
2022-09-28T10:34:35.747Z,98903.61
2022-09-28T10:37:11.425Z,98908.65
2022-09-28T10:40:43.578Z,98906.34
2022-09-28T10:43:25.105Z,98904.16
2022-09-28T10:46:11.187Z,98906.29
2022-09-28T10:49:02.230Z,98904.27
2022-09-28T10:52:00.821Z,98901.60
2022-09-28T10:54:34.554Z,98899.23
2022-09-28T10:57:02.563Z,98899.00
2022-09-28T10:59:47.621Z,98900.64
2022-09-28T11:02:35.933Z,98898.09
2022-09-28T11:05:33.973Z,98896.31
2022-09-28T11:08:06.881Z,98895.91
2022-09-28T11:10:40.723Z,98895.70
2022-09-28T11:13:12.740Z,98899.85
2022-09-28T11:15:44.426Z,98894.70
2022-09-28T11:18:26.425Z,98899.76
2022-09-28T11:21:11.286Z,98897.40
2022-09-28T11:23:42.341Z,98895.88
2022-09-28T11:26:19.029Z,98880.14
2022-09-28T11:28:52.448Z,98894.27
2022-09-28T11:31:29.037Z,98898.73
2022-09-28T11:34:36.442Z,98899.30
2022-09-28T11:37:54.170Z,98900.70
2022-09-28T11:40:44.328Z,98884.70
2022-09-28T11:43:41.684Z,98889.85
2022-09-28T11:46:14.253Z,98900.77
2022-09-28T11:48:51.237Z,98904.98
2022-09-28T11:51:32.232Z,98907.20
2022-09-28T11:54:14.638Z,98913.31
2022-09-28T11:56:50.055Z,98908.92
2022-09-28T11:59:27.795Z,98912.56
2022-09-28T12:01:59.725Z,98908.94
2022-09-28T12:04:43.857Z,98907.75
2022-09-28T12:07:23.282Z,98902.21
2022-09-28T12:10:10.310Z,98904.04
2022-09-28T12:12:45.597Z,98908.42
2022-09-28T12:15:28.460Z,98907.37
2022-09-28T12:18:03.802Z,98908.95
2022-09-28T12:20:50.277Z,98908.52
2022-09-28T12:23:25.984Z,98910.79
2022-09-28T12:25:59.443Z,98901.70
2022-09-28T12:28:46.012Z,98902.23
2022-09-28T12:31:26.493Z,98897.02
2022-09-28T12:33:55.941Z,98886.39
2022-09-28T12:36:42.750Z,98893.17
2022-09-28T12:39:46.965Z,98890.04
2022-09-28T12:42:39.423Z,98893.53
2022-09-28T12:45:30.970Z,98892.70
2022-09-28T12:48:21.825Z,98889.36
2022-09-28T12:51:14.458Z,98889.89
2022-09-28T12:54:07.247Z,98888.67
2022-09-28T12:56:50.147Z,98889.61
2022-09-28T12:59:31.212Z,98894.04
2022-09-28T13:02:27.504Z,98889.39
2022-09-28T13:05:02.236Z,98887.25
2022-09-28T13:07:49.889Z,98887.36
2022-09-28T13:10:35.093Z,98885.02
2022-09-28T13:13:17.236Z,98886.73
2022-09-28T13:16:06.232Z,98882.89
2022-09-28T13:18:39.605Z,98878.77
2022-09-28T13:21:34.503Z,98880.27
2022-09-28T13:24:20.973Z,98873.61
2022-09-28T13:26:55.772Z,98866.72
2022-09-28T13:29:25.094Z,98860.75
2022-09-28T13:31:57.628Z,98858.98
2022-09-28T13:34:29.022Z,98861.88
2022-09-28T13:37:16.982Z,98862.89
2022-09-28T13:39:45.011Z,98860.23
2022-09-28T13:42:25.152Z,98864.02
2022-09-28T13:45:03.498Z,98860.32
2022-09-28T13:47:54.004Z,98861.98
2022-09-28T13:50:34.644Z,98866.39
2022-09-28T13:53:40.274Z,98846.79
2022-09-28T13:56:33.260Z,98860.92
2022-09-28T13:59:22.340Z,98864.36
2022-09-28T14:01:58.146Z,98865.23
2022-09-28T14:04:58.418Z,98860.71
2022-09-28T14:07:35.084Z,98864.38
2022-09-28T14:10:26.056Z,98860.90
2022-09-28T14:12:55.094Z,98863.99
2022-09-28T14:15:28.999Z,98863.41
2022-09-28T14:18:25.603Z,98858.74
2022-09-28T14:21:16.233Z,98862.23
2022-09-28T14:24:05.644Z,98865.41
2022-09-28T14:27:02.930Z,98869.73
2022-09-28T14:29:34.263Z,98872.41
2022-09-28T14:32:25.890Z,98870.85
2022-09-28T14:35:06.201Z,98877.05
2022-09-28T14:37:55.278Z,98848.49
2022-09-28T14:40:49.781Z,98873.00
2022-09-28T14:43:27.111Z,98864.66
2022-09-28T14:46:28.140Z,98863.05
2022-09-28T14:49:19.324Z,98868.16
2022-09-28T14:51:48.157Z,98871.20
2022-09-28T14:54:27.916Z,98877.54
2022-09-28T14:57:26.802Z,98877.53
2022-09-28T14:59:56.187Z,98875.94
2022-09-28T15:02:32.362Z,98883.13
2022-09-28T15:05:07.167Z,98889.91
2022-09-28T15:07:51.683Z,98885.98
2022-09-28T15:10:32.835Z,98888.25
2022-09-28T15:13:03.222Z,98891.46
2022-09-28T15:15:38.325Z,98890.52
2022-09-28T15:18:18.455Z,98888.30
2022-09-28T15:20:49.187Z,98871.66
2022-09-28T15:23:47.026Z,98878.66
2022-09-28T15:26:31.680Z,98868.26
2022-09-28T15:29:03.474Z,98868.25
2022-09-28T15:31:37.072Z,98868.44
2022-09-28T15:34:23.501Z,98873.56
2022-09-28T15:36:52.376Z,98871.59
2022-09-28T15:39:48.382Z,98857.48
2022-09-28T15:42:20.597Z,98859.31
2022-09-28T15:45:24.962Z,98860.83
2022-09-28T15:48:00.917Z,98868.45
2022-09-28T15:50:30.056Z,98873.71
2022-09-28T15:53:04.457Z,98871.96
2022-09-28T15:55:39.620Z,98873.96
2022-09-28T15:58:18.822Z,98872.94
2022-09-28T16:00:51.838Z,98878.04
2022-09-28T16:03:24.183Z,98875.69
2022-09-28T16:06:10.878Z,98863.41
2022-09-28T16:08:43.942Z,98865.17
2022-09-28T16:11:24.322Z,98859.39
2022-09-28T16:13:56.474Z,98850.99
2022-09-28T16:16:30.118Z,98850.23
2022-09-28T16:19:01.315Z,98850.70
2022-09-28T16:21:47.068Z,98855.89
2022-09-28T16:24:24.856Z,98860.14
2022-09-28T16:27:28.123Z,98857.30
2022-09-28T16:30:20.447Z,98851.92
2022-09-28T16:33:01.898Z,98854.32
2022-09-28T16:35:50.632Z,98852.39
2022-09-28T16:38:19.780Z,98851.46
2022-09-28T16:40:49.991Z,98849.09
2022-09-28T16:43:27.980Z,98849.49
2022-09-28T16:45:59.336Z,98846.54
2022-09-28T16:48:29.660Z,98861.11
2022-09-28T16:50:58.398Z,98870.67
2022-09-28T16:53:45.978Z,98873.94
2022-09-28T16:56:14.339Z,98867.98
2022-09-28T16:58:42.608Z,98859.45
2022-09-28T17:01:12.494Z,98859.89
2022-09-28T17:03:47.043Z,98855.34
2022-09-28T17:06:16.549Z,98854.37
2022-09-28T17:08:45.246Z,98849.06
2022-09-28T17:11:19.222Z,98847.08
2022-09-28T17:13:50.601Z,98847.33
2022-09-28T17:19:25.957Z,98851.55
2022-09-28T17:21:54.042Z,98862.37
2022-09-28T17:24:22.102Z,98864.52
2022-09-28T17:26:52.038Z,98872.90
2022-09-28T17:29:21.921Z,98877.06
2022-09-28T17:31:49.761Z,98883.86
2022-09-28T17:34:19.831Z,98892.44
2022-09-28T17:36:47.987Z,98892.67
2022-09-28T17:39:18.732Z,98896.95
2022-09-28T17:41:46.968Z,98898.85
2022-09-28T17:44:16.349Z,98900.00
2022-09-28T17:46:48.956Z,98898.39
2022-09-28T17:49:17.431Z,98897.82
2022-09-28T17:51:45.277Z,98899.16
2022-09-28T17:54:13.760Z,98900.27
2022-09-28T17:56:42.779Z,98901.27
2022-09-28T17:59:13.836Z,98905.73
2022-09-28T18:01:42.319Z,98913.92
2022-09-28T18:04:22.984Z,98917.60
2022-09-28T18:07:00.622Z,98924.23
2022-09-28T18:09:28.590Z,98925.91
2022-09-28T18:12:00.987Z,98931.48
2022-09-28T18:14:30.324Z,98935.27
2022-09-28T18:16:58.202Z,98938.53
2022-09-28T18:19:31.668Z,98939.48
2022-09-28T18:22:05.229Z,98940.73
2022-09-28T18:24:34.911Z,98947.00
2022-09-28T18:27:03.146Z,98949.34
2022-09-28T18:29:33.482Z,98934.68
2022-09-28T18:32:02.724Z,98954.34
2022-09-28T18:34:30.764Z,98956.71
2022-09-28T18:37:02.046Z,98958.16
2022-09-28T18:39:30.539Z,98959.63
2022-09-28T18:41:58.524Z,98959.52
2022-09-28T18:44:26.340Z,98963.06
2022-09-28T18:46:54.589Z,98966.41
2022-09-28T18:49:23.274Z,98963.64
2022-09-28T18:51:51.809Z,98965.35
2022-09-28T18:54:19.698Z,98954.20
2022-09-28T18:56:47.784Z,98969.32
2022-09-28T18:59:16.038Z,98966.06
2022-09-28T19:01:44.038Z,98957.08
2022-09-28T19:04:12.189Z,98961.09
2022-09-28T19:06:41.933Z,98957.79
2022-09-28T19:09:10.768Z,98951.27
2022-09-28T19:11:38.646Z,98927.11
2022-09-28T19:14:06.693Z,98915.54
2022-09-28T19:16:35.806Z,98910.26
2022-09-28T19:19:06.614Z,98934.01
2022-09-28T19:21:34.424Z,98937.02
2022-09-28T19:24:04.179Z,98929.03
2022-09-28T19:26:33.437Z,98924.34
2022-09-28T19:29:03.113Z,98922.34
2022-09-28T19:31:32.747Z,98916.58
2022-09-28T19:34:00.656Z,98911.77
2022-09-28T19:36:29.481Z,98912.00
2022-09-28T19:39:02.189Z,98905.27
2022-09-28T19:41:51.819Z,98902.15
2022-09-28T19:44:27.405Z,98901.58
2022-09-28T19:46:59.103Z,98903.27
2022-09-28T19:49:28.308Z,98901.13
2022-09-28T19:52:12.298Z,98898.01
2022-09-28T19:54:48.411Z,98897.64
2022-09-28T19:57:16.454Z,98901.80
2022-09-28T19:59:44.506Z,98900.22
2022-09-28T20:02:12.415Z,98901.11
2022-09-28T20:04:40.416Z,98902.74
2022-09-28T20:07:08.217Z,98903.55
2022-09-28T20:09:36.192Z,98905.95
2022-09-28T20:12:04.024Z,98905.10
2022-09-28T20:14:36.570Z,98908.30
2022-09-28T20:17:08.154Z,98910.10
2022-09-28T20:19:36.174Z,98912.66
2022-09-28T20:22:04.078Z,98912.09
2022-09-28T20:24:32.671Z,98913.80
2022-09-28T20:27:01.591Z,98914.89
2022-09-28T20:29:34.039Z,98916.52
2022-09-28T20:32:04.258Z,98916.10
2022-09-28T20:34:34.138Z,98917.86
2022-09-28T20:37:02.135Z,98922.41
2022-09-28T20:39:30.340Z,98925.45
2022-09-28T20:41:58.213Z,98926.11
2022-09-28T20:44:26.077Z,98923.66
2022-09-28T20:46:54.148Z,98928.16
2022-09-28T20:49:21.961Z,98927.65
2022-09-28T20:51:49.683Z,98924.80
2022-09-28T20:54:17.729Z,98925.89
2022-09-28T20:56:48.168Z,98925.95
2022-09-28T20:59:16.451Z,98927.91
2022-09-28T21:01:44.636Z,98933.37
2022-09-28T21:04:14.552Z,98932.88
2022-09-28T21:06:43.185Z,98928.96
2022-09-28T21:09:12.516Z,98928.00
2022-09-28T21:11:41.772Z,98931.77
2022-09-28T21:14:10.434Z,98898.84
2022-09-28T21:16:38.623Z,98928.73
2022-09-28T21:19:06.597Z,98930.16
2022-09-28T21:21:34.821Z,98933.47
2022-09-28T21:24:03.312Z,98933.34
2022-09-28T21:26:31.680Z,98927.23
2022-09-28T21:29:11.148Z,98929.52
2022-09-28T21:31:41.717Z,98933.14
2022-09-28T21:34:19.483Z,98932.88
2022-09-28T21:36:51.195Z,98934.66
2022-09-28T21:39:22.924Z,98940.56
2022-09-28T21:41:51.143Z,98948.16
2022-09-28T21:44:19.079Z,98941.94
2022-09-28T21:46:47.560Z,98954.52
2022-09-28T21:49:15.575Z,98959.76
2022-09-28T21:51:43.584Z,98960.86
2022-09-28T21:54:12.158Z,98965.27
2022-09-28T21:56:40.124Z,98965.13
2022-09-28T21:59:07.932Z,98970.02
2022-09-28T22:01:35.962Z,98977.02
2022-09-28T22:04:03.868Z,98977.98
2022-09-28T22:06:31.585Z,98977.59
2022-09-28T22:08:59.569Z,98977.96
2022-09-28T22:11:28.761Z,98974.80
2022-09-28T22:13:59.113Z,98981.83
2022-09-28T22:16:29.487Z,98975.98
2022-09-28T22:18:58.747Z,98981.17
2022-09-28T22:21:35.238Z,98981.60
2022-09-28T22:24:05.952Z,98978.46
2022-09-28T22:26:36.506Z,98962.93
2022-09-28T22:29:07.399Z,98976.88
2022-09-28T22:31:38.329Z,98978.83
2022-09-28T22:34:07.399Z,98982.08
2022-09-28T22:36:35.593Z,98976.27
2022-09-28T22:39:04.777Z,98971.20
2022-09-28T22:41:33.044Z,98974.64
2022-09-28T22:44:01.324Z,98976.68
2022-09-28T22:46:32.278Z,98976.96
2022-09-28T22:49:00.891Z,98984.86
2022-09-28T22:51:30.223Z,98987.56
2022-09-28T22:53:58.780Z,98986.79
2022-09-28T22:56:27.271Z,98979.95
2022-09-28T22:58:54.965Z,98979.21
2022-09-28T23:01:28.824Z,98982.80
2022-09-28T23:03:58.143Z,98982.51
2022-09-28T23:06:28.241Z,98987.23
2022-09-28T23:08:56.046Z,98979.61
2022-09-28T23:11:24.153Z,98979.25
2022-09-28T23:13:54.130Z,98981.02
2022-09-28T23:16:25.055Z,98981.59
2022-09-28T23:18:55.219Z,98990.05
2022-09-28T23:21:25.431Z,98992.63
2022-09-28T23:23:56.552Z,98992.33
2022-09-28T23:26:27.219Z,98995.48
2022-09-28T23:28:55.719Z,98996.21
2022-09-28T23:31:26.646Z,98999.90
2022-09-28T23:34:03.241Z,99002.02
2022-09-28T23:36:32.023Z,99011.37
2022-09-28T23:39:00.067Z,99015.83
2022-09-28T23:41:28.107Z,99022.59
2022-09-28T23:43:55.881Z,99028.84
2022-09-28T23:46:24.168Z,99029.44
2022-09-28T23:48:52.110Z,99028.80
2022-09-28T23:51:20.057Z,99026.89
2022-09-28T23:53:48.154Z,99029.73
2022-09-28T23:56:16.030Z,99029.33
2022-09-28T23:58:43.943Z,99030.09
